Time;durP1;ratioP1;P1;durP2;ratioP2;P2;SDS_P1;SDS_P2;PMS_P1;PMS_P2;Temp;Humidity;BMP_temperature;BMP_pressure;BME280_temperature;BME280_humidity;BME280_pressure;Samples;Min_cycle;Max_cycle;Signal;HPM_P1;HPM_P2
2022/11/17 04:39:59;;;;;;;3.93;3.00;;;14.90;93.00;;;;;;4612601;19;20045;-22
2022/11/17 04:43:21;;;;;;;3.87;3.30;;;14.80;93.30;;;;;;4608406;19;20033;-21
2022/11/17 04:44:51;;;;;;;4.50;3.67;;;14.80;93.30;;;;;;4610566;19;20031;-23
2022/11/17 04:46:23;;;;;;;5.10;3.00;;;14.80;93.20;;;;;;4611658;19;20019;-23
2022/11/17 04:47:54;;;;;;;4.60;3.03;;;14.90;93.50;;;;;;4612636;19;20006;-22
2022/11/17 04:49:25;;;;;;;4.47;3.40;;;14.90;93.20;;;;;;4611976;19;20028;-26
2022/11/17 04:50:56;;;;;;;3.08;2.67;;;14.90;93.10;;;;;;4610953;19;20093;-22
2022/11/17 04:52:27;;;;;;;3.30;2.60;;;15.00;93.10;;;;;;4613222;19;20025;-22
2022/11/17 04:53:58;;;;;;;3.95;2.95;;;15.00;93.10;;;;;;4611671;19;20355;-24
2022/11/17 04:55:31;;;;;;;4.00;2.97;;;15.10;93.00;;;;;;4612993;19;20032;-22
2022/11/17 04:57:02;;;;;;;3.07;2.73;;;15.20;93.00;;;;;;4609943;19;20050;-22
2022/11/17 04:58:33;;;;;;;3.83;3.03;;;15.20;92.90;;;;;;4610516;19;20470;-22
2022/11/17 05:00:23;;;;;;;3.47;2.83;;;15.20;93.00;;;;;;4610574;19;20073;-23
2022/11/17 05:01:54;;;;;;;4.43;3.30;;;15.20;93.00;;;;;;4610210;19;20023;-23
2022/11/17 05:03:25;;;;;;;4.65;3.92;;;14.30;92.70;;;;;;4612285;19;20012;-24
2022/11/17 05:04:56;;;;;;;5.13;4.63;;;12.50;94.40;;;;;;4612567;19;20027;-22
2022/11/17 05:06:35;;;;;;;5.15;3.90;;;11.50;95.80;;;;;;4611362;19;20014;-22
2022/11/17 05:08:06;;;;;;;5.13;4.23;;;11.00;96.80;;;;;;4611831;19;20006;-22
2022/11/17 05:09:37;;;;;;;5.40;4.40;;;10.70;97.40;;;;;;4613268;19;20486;-21
2022/11/17 05:14:49;;;;;;;4.90;4.20;;;10.30;97.50;;;;;;4611291;19;20464;-21
2022/11/17 05:18:09;;;;;;;4.90;3.87;;;11.00;97.30;;;;;;4604226;19;20505;-24
2022/11/17 05:19:45;;;;;;;5.10;3.75;;;12.10;96.40;;;;;;4609345;19;20535;-23
2022/11/17 05:21:16;;;;;;;4.30;3.83;;;12.70;95.80;;;;;;4609802;19;20534;-21
2022/11/17 05:24:37;;;;;;;3.67;3.17;;;13.50;94.90;;;;;;4611536;19;20394;-22
2022/11/17 05:26:08;;;;;;;4.10;3.42;;;13.70;94.50;;;;;;4607200;19;20520;-22
2022/11/17 05:27:39;;;;;;;4.00;3.60;;;13.90;94.40;;;;;;4609333;19;20031;-21
2022/11/17 05:29:29;;;;;;;3.70;3.28;;;14.00;94.20;;;;;;4608911;19;20014;-22
2022/11/17 05:31:00;;;;;;;3.80;3.20;;;14.10;94.00;;;;;;4612088;19;20011;-22
2022/11/17 05:32:31;;;;;;;4.85;3.85;;;14.20;94.00;;;;;;4611808;19;21075;-22
2022/11/17 05:34:03;;;;;;;4.10;3.25;;;14.20;93.90;;;;;;4611070;19;20025;-22
2022/11/17 05:35:34;;;;;;;5.43;3.93;;;14.30;93.80;;;;;;4610792;19;20014;-23
2022/11/17 05:37:05;;;;;;;3.80;3.28;;;14.40;93.70;;;;;;4610977;19;20410;-22
2022/11/17 05:38:36;;;;;;;6.43;4.65;;;14.40;93.70;;;;;;4609331;19;20026;-22
2022/11/17 05:40:07;;;;;;;4.18;3.47;;;14.50;93.50;;;;;;4611075;19;20347;-25
2022/11/17 05:41:39;;;;;;;;;;;14.50;93.40;;;;;;4611490;19;20022;-22
2022/11/17 05:43:10;;;;;;;4.53;3.67;;;14.50;93.60;;;;;;4610130;19;19915;-21
2022/11/17 05:44:40;;;;;;;4.78;3.60;;;14.50;93.50;;;;;;4610048;19;20044;-23
2022/11/17 05:46:11;;;;;;;4.00;3.35;;;14.50;93.30;;;;;;4612080;19;20010;-22
2022/11/17 05:47:43;;;;;;;4.13;3.47;;;14.60;93.40;;;;;;4610082;19;20023;-23
2022/11/17 05:49:14;;;;;;;4.45;3.65;;;14.60;93.30;;;;;;4608636;19;20375;-22
2022/11/17 05:50:45;;;;;;;5.60;4.07;;;14.60;93.20;;;;;;4593006;19;20037;-22
2022/11/17 05:52:16;;;;;;;5.43;4.00;;;14.60;93.20;;;;;;4592311;19;20015;-22
2022/11/17 05:53:47;;;;;;;4.05;3.65;;;14.60;93.20;;;;;;4594342;19;20007;-21
2022/11/17 05:55:18;;;;;;;4.93;4.32;;;14.70;93.30;;;;;;4593604;19;20409;-22
2022/11/17 05:56:55;;;;;;;5.13;4.30;;;14.70;93.20;;;;;;4592276;19;20049;-22
2022/11/17 05:58:27;;;;;;;5.00;3.87;;;14.70;93.20;;;;;;4591682;19;20019;-23
2022/11/17 05:59:59;;;;;;;4.97;3.85;;;14.70;93.10;;;;;;4593390;19;20470;-22
2022/11/17 06:01:31;;;;;;;4.63;3.93;;;14.70;93.10;;;;;;4593000;19;20014;-22
2022/11/17 06:03:04;;;;;;;4.15;3.47;;;14.70;93.00;;;;;;4592739;19;20343;-23
2022/11/17 06:04:35;;;;;;;5.93;3.87;;;14.70;92.90;;;;;;4592272;19;20037;-22
2022/11/17 06:06:07;;;;;;;4.30;3.25;;;14.70;92.90;;;;;;4593254;19;20335;-22
2022/11/17 06:07:38;;;;;;;5.38;3.53;;;14.70;92.90;;;;;;4592391;19;20019;-22
2022/11/17 06:09:09;;;;;;;4.65;3.60;;;14.70;92.70;;;;;;4591457;19;20018;-22
2022/11/17 06:10:40;;;;;;;5.47;3.83;;;14.70;92.80;;;;;;4591097;19;20475;-25
2022/11/17 06:12:11;;;;;;;5.20;3.80;;;14.70;92.80;;;;;;4593956;19;20014;-22
2022/11/17 06:13:42;;;;;;;5.18;3.72;;;14.70;92.70;;;;;;4592295;19;20392;-23
2022/11/17 06:15:13;;;;;;;5.53;3.92;;;14.70;92.60;;;;;;4592881;19;20030;-21
2022/11/17 06:16:44;;;;;;;5.13;3.53;;;14.70;92.60;;;;;;4593389;19;20018;-22
2022/11/17 06:18:16;;;;;;;5.53;4.45;;;14.70;92.90;;;;;;4591054;19;20029;-23
2022/11/17 06:19:50;;;;;;;5.07;4.38;;;14.70;92.70;;;;;;4591395;19;20010;-22
2022/11/17 06:21:21;;;;;;;5.60;4.23;;;14.70;92.70;;;;;;4589179;19;20036;-23
2022/11/17 06:22:53;;;;;;;6.90;4.47;;;14.70;92.70;;;;;;4593097;19;20385;-23
2022/11/17 06:24:24;;;;;;;5.10;3.97;;;14.70;92.70;;;;;;4590981;19;20037;-21
2022/11/17 06:25:58;;;;;;;5.47;4.45;;;14.80;92.70;;;;;;4591355;19;20014;-21
2022/11/17 06:27:30;;;;;;;5.30;4.13;;;14.80;92.60;;;;;;4589821;19;20026;-22
2022/11/17 06:29:02;;;;;;;5.70;3.90;;;14.80;92.50;;;;;;4591294;19;20053;-23
2022/11/17 06:30:33;;;;;;;4.68;3.53;;;14.80;92.50;;;;;;4591618;19;20058;-24
2022/11/17 06:32:04;;;;;;;;;;;14.80;92.40;;;;;;4590868;19;20024;-25
2022/11/17 06:33:36;;;;;;;7.33;3.93;;;14.80;92.40;;;;;;4592561;19;20257;-23
2022/11/17 06:35:07;;;;;;;7.10;4.53;;;14.80;92.40;;;;;;4591529;19;20025;-21
2022/11/17 06:36:38;;;;;;;6.05;3.83;;;14.90;92.30;;;;;;4590629;19;20124;-23
2022/11/17 06:38:09;;;;;;;4.85;4.18;;;14.90;92.20;;;;;;4590044;19;20531;-24
2022/11/17 06:39:40;;;;;;;5.40;4.50;;;15.00;92.20;;;;;;4591079;19;20015;-23
2022/11/17 06:41:11;;;;;;;6.13;4.75;;;15.00;92.20;;;;;;4592621;19;20018;-23
2022/11/17 06:44:32;;;;;;;5.77;4.87;;;15.10;92.20;;;;;;4591010;19;20036;-23
2022/11/17 06:46:03;;;;;;;5.25;4.72;;;15.10;92.20;;;;;;4592199;19;20055;-23
2022/11/17 06:47:34;;;;;;;;;;;15.20;92.20;;;;;;4593587;19;20022;-22
2022/11/17 06:49:06;;;;;;;6.33;5.00;;;15.20;92.30;;;;;;4590967;19;19911;-23
2022/11/17 06:50:55;;;;;;;6.30;5.15;;;15.20;92.30;;;;;;4591021;19;20018;-22
2022/11/17 06:52:27;;;;;;;5.10;3.97;;;15.20;92.30;;;;;;4592104;19;20010;-23
2022/11/17 06:53:58;;;;;;;6.00;4.93;;;15.30;92.40;;;;;;4592515;19;20034;-24
2022/11/17 06:55:30;;;;;;;5.37;4.17;;;15.30;92.30;;;;;;4591326;19;20022;-24
2022/11/17 06:57:01;;;;;;;5.72;4.10;;;15.30;92.30;;;;;;4592650;19;20047;-22
2022/11/17 06:58:32;;;;;;;6.05;4.88;;;15.30;92.40;;;;;;4590726;19;20018;-27
2022/11/17 07:00:04;;;;;;;6.45;5.05;;;15.30;92.40;;;;;;4590287;19;20029;-22
2022/11/17 07:01:36;;;;;;;5.60;4.40;;;15.30;92.30;;;;;;4589256;19;20013;-24
2022/11/17 07:03:08;;;;;;;5.47;4.50;;;15.30;92.40;;;;;;4590025;19;20019;-23
2022/11/17 07:04:39;;;;;;;6.00;5.10;;;15.30;92.40;;;;;;4589467;19;20018;-22
2022/11/17 07:06:11;;;;;;;5.10;4.60;;;15.30;92.50;;;;;;4589561;19;20010;-22
2022/11/17 07:07:42;;;;;;;5.40;4.20;;;15.40;92.50;;;;;;4591536;19;20014;-21
2022/11/17 07:09:13;;;;;;;5.05;4.45;;;15.30;92.50;;;;;;4590106;19;20351;-22
2022/11/17 07:10:44;;;;;;;6.57;4.85;;;15.30;92.50;;;;;;4592159;19;20043;-22
2022/11/17 07:12:15;;;;;;;6.40;4.20;;;15.30;92.60;;;;;;4591412;19;20010;-23
2022/11/17 07:13:46;;;;;;;5.78;3.83;;;15.30;92.50;;;;;;4591064;19;20019;-23
2022/11/17 07:15:18;;;;;;;5.65;4.72;;;15.30;92.50;;;;;;4591426;19;20036;-22
2022/11/17 07:16:48;;;;;;;4.80;4.20;;;15.30;92.50;;;;;;4592307;19;20051;-24
2022/11/17 07:18:20;;;;;;;4.80;3.90;;;15.30;92.60;;;;;;4592260;19;20459;-23
2022/11/17 07:19:52;;;;;;;5.25;4.50;;;15.20;92.60;;;;;;4591764;19;20043;-22
2022/11/17 07:21:23;;;;;;;5.73;4.57;;;15.20;92.60;;;;;;4590090;19;20026;-22
2022/11/17 07:22:58;;;;;;;4.47;3.80;;;15.30;92.60;;;;;;4592221;19;20470;-22
2022/11/17 07:24:29;;;;;;;4.00;3.33;;;15.40;92.50;;;;;;4592405;19;20097;-24
2022/11/17 07:26:01;;;;;;;5.05;3.80;;;15.50;92.50;;;;;;4590590;19;20014;-21
2022/11/17 07:27:32;;;;;;;5.70;3.97;;;15.50;93.10;;;;;;4591072;19;20007;-23
2022/11/17 07:29:02;;;;;;;5.28;3.97;;;15.60;92.80;;;;;;4592253;19;20033;-22
2022/11/17 07:30:35;;;;;;;4.70;3.83;;;15.60;93.00;;;;;;4591458;19;20018;-23
2022/11/17 07:32:05;;;;;;;;;;;15.40;92.80;;;;;;4591534;19;20011;-22
2022/11/17 07:33:36;;;;;;;5.53;4.60;;;15.40;92.80;;;;;;4591554;19;20351;-25
2022/11/17 07:35:08;;;;;;;6.47;4.55;;;15.30;92.80;;;;;;4590833;19;20014;-22
2022/11/17 07:36:39;;;;;;;7.60;4.80;;;15.20;92.70;;;;;;4591297;19;20019;-22
2022/11/17 07:38:10;;;;;;;7.40;5.57;;;15.20;92.70;;;;;;4590690;19;20017;-21
2022/11/17 07:39:41;;;;;;;8.15;5.75;;;15.20;92.60;;;;;;4590504;19;20022;-24
2022/11/17 07:41:13;;;;;;;5.50;4.78;;;15.20;92.70;;;;;;4590983;19;20062;-22
2022/11/17 07:42:47;;;;;;;;;;;15.20;92.70;;;;;;4590188;19;20014;-22
2022/11/17 07:44:18;;;;;;;5.40;4.53;;;15.10;92.80;;;;;;4587332;19;19922;-22
2022/11/17 07:45:49;;;;;;;5.05;4.55;;;15.10;92.80;;;;;;4589229;19;20014;-22
2022/11/17 07:47:21;;;;;;;5.10;4.60;;;15.10;92.80;;;;;;4589728;19;20036;-22
2022/11/17 07:48:55;;;;;;;4.47;4.07;;;15.10;92.90;;;;;;4589717;19;20018;-22
2022/11/17 07:50:26;;;;;;;5.50;4.63;;;15.10;92.80;;;;;;4590882;19;20357;-22
2022/11/17 07:52:00;;;;;;;5.20;4.40;;;15.10;92.90;;;;;;4590717;19;20011;-26
2022/11/17 07:53:32;;;;;;;6.03;4.63;;;15.10;92.90;;;;;;4589525;19;20018;-22
2022/11/17 07:55:03;;;;;;;5.53;4.40;;;15.10;92.90;;;;;;4588196;19;20023;-25
2022/11/17 07:56:34;;;;;;;5.60;4.80;;;15.10;92.90;;;;;;4590980;19;20478;-23
2022/11/17 07:58:05;;;;;;;6.40;5.70;;;15.10;92.90;;;;;;4588953;19;20022;-22
2022/11/17 07:59:36;;;;;;;6.82;5.30;;;15.00;92.90;;;;;;4590461;19;20503;-22
2022/11/17 08:01:08;;;;;;;5.65;4.70;;;15.10;93.00;;;;;;4590974;19;20013;-24
2022/11/17 08:02:40;;;;;;;6.47;5.53;;;15.10;92.90;;;;;;4591776;19;20317;-25
2022/11/17 08:04:25;;;;;;;5.63;4.77;;;15.10;92.90;;;;;;4590313;19;20344;-22
2022/11/17 08:06:03;;;;;;;6.30;5.35;;;15.10;92.90;;;;;;4590547;19;20006;-25
2022/11/17 08:07:34;;;;;;;5.90;4.70;;;15.10;92.90;;;;;;4589894;19;20019;-24
2022/11/17 08:09:06;;;;;;;5.50;4.05;;;15.10;92.80;;;;;;4590007;19;20016;-21
2022/11/17 08:10:36;;;;;;;5.20;4.40;;;15.00;92.80;;;;;;4590317;19;20340;-21
2022/11/17 08:12:08;;;;;;;7.35;4.40;;;15.10;92.80;;;;;;4590078;19;20339;-23
2022/11/17 08:13:39;;;;;;;4.60;3.97;;;15.10;92.80;;;;;;4590147;19;20013;-23
2022/11/17 08:15:10;;;;;;;5.03;4.30;;;15.10;92.80;;;;;;4591061;19;20028;-22
2022/11/17 08:16:41;;;;;;;5.03;4.10;;;15.00;92.70;;;;;;4590307;19;20494;-24
2022/11/17 08:18:12;;;;;;;6.45;4.55;;;15.00;92.60;;;;;;4588905;19;20014;-23
2022/11/17 08:19:46;;;;;;;4.97;4.00;;;15.10;92.70;;;;;;4587943;19;20007;-25
2022/11/17 08:21:17;;;;;;;4.22;3.80;;;15.00;92.70;;;;;;4588635;19;20014;-22
2022/11/17 08:22:50;;;;;;;4.45;3.90;;;15.00;92.50;;;;;;4588124;19;20082;-23
2022/11/17 08:24:21;;;;;;;6.47;4.40;;;15.00;92.50;;;;;;4588240;19;20014;-23
2022/11/17 08:25:52;;;;;;;7.68;4.25;;;15.00;92.40;;;;;;4588321;19;20019;-27
2022/11/17 08:27:23;;;;;;;4.85;4.15;;;15.00;92.40;;;;;;4588357;19;20014;-25
2022/11/17 08:28:55;;;;;;;5.22;4.32;;;15.00;92.50;;;;;;4588274;19;20014;-22
2022/11/17 08:30:27;;;;;;;4.37;3.90;;;15.00;92.40;;;;;;4588473;19;20164;-24
2022/11/17 08:31:58;;;;;;;4.47;4.00;;;15.00;92.40;;;;;;4588688;19;20014;-22
2022/11/17 08:33:29;;;;;;;5.20;4.22;;;15.00;92.30;;;;;;4587900;19;20010;-22
2022/11/17 08:35:02;;;;;;;;;;;15.00;92.40;;;;;;4589205;19;20010;-22
2022/11/17 08:36:34;;;;;;;6.37;4.87;;;15.00;92.40;;;;;;4588383;19;19960;-23
2022/11/17 08:38:05;;;;;;;4.93;4.43;;;15.00;92.40;;;;;;4588113;19;20006;-22
2022/11/17 08:39:36;;;;;;;4.55;3.85;;;15.00;92.40;;;;;;4586952;19;20011;-23
2022/11/17 08:41:08;;;;;;;4.13;3.50;;;14.90;92.20;;;;;;4587650;19;20110;-22
2022/11/17 08:42:39;;;;;;;4.27;3.73;;;15.00;92.10;;;;;;4588465;19;20494;-24
2022/11/17 08:44:10;;;;;;;4.43;3.70;;;15.00;92.30;;;;;;4588088;19;20375;-22
2022/11/17 08:45:41;;;;;;;5.40;3.78;;;15.00;92.30;;;;;;4587666;19;20006;-21
2022/11/17 08:47:12;;;;;;;4.57;3.38;;;14.90;92.10;;;;;;4587966;19;20010;-22
2022/11/17 08:48:43;;;;;;;5.70;4.25;;;14.90;91.90;;;;;;4588326;19;20015;-24
2022/11/17 08:50:16;;;;;;;4.50;3.78;;;15.00;91.90;;;;;;4587502;19;20011;-23
2022/11/17 08:51:47;;;;;;;4.73;3.43;;;15.00;91.80;;;;;;4589213;19;20010;-23
2022/11/17 08:53:19;;;;;;;4.90;3.45;;;14.90;91.80;;;;;;4588920;19;20019;-22
2022/11/17 08:54:51;;;;;;;6.10;3.60;;;14.90;91.90;;;;;;4589997;19;20027;-22
2022/11/17 08:56:22;;;;;;;4.28;3.70;;;14.90;91.80;;;;;;4589595;19;20010;-22
2022/11/17 08:57:53;;;;;;;4.88;3.80;;;14.90;91.70;;;;;;4588859;19;20462;-22
2022/11/17 08:59:24;;;;;;;3.72;3.10;;;15.00;91.70;;;;;;4588594;19;20010;-22
2022/11/17 09:00:55;;;;;;;;;;;15.00;91.70;;;;;;4590119;19;20029;-25
2022/11/17 09:02:27;;;;;;;4.70;3.70;;;15.00;91.80;;;;;;4589214;19;19919;-23
2022/11/17 09:03:58;;;;;;;8.07;4.10;;;15.00;91.80;;;;;;4589545;19;20077;-23
2022/11/17 09:05:29;;;;;;;5.00;4.07;;;14.90;91.70;;;;;;4590569;19;20002;-21
2022/11/17 09:07:00;;;;;;;5.32;4.57;;;14.90;91.70;;;;;;4589341;19;20019;-22
2022/11/17 09:08:31;;;;;;;5.43;4.55;;;15.00;91.60;;;;;;4589412;19;20352;-22
2022/11/17 09:10:03;;;;;;;5.50;4.32;;;14.90;91.40;;;;;;4589901;19;20014;-21
2022/11/17 09:11:34;;;;;;;;;;;14.90;91.40;;;;;;4590630;19;20002;-21
2022/11/17 09:13:05;;;;;;;3.92;3.28;;;14.90;91.40;;;;;;4588256;19;19922;-22
2022/11/17 09:14:36;;;;;;;4.85;4.20;;;15.00;91.50;;;;;;4588760;19;20018;-23
2022/11/17 09:16:08;;;;;;;4.15;3.35;;;15.00;91.60;;;;;;4589375;19;20407;-21
2022/11/17 09:17:42;;;;;;;4.80;4.30;;;14.90;91.40;;;;;;4588937;19;20014;-22
2022/11/17 09:19:13;;;;;;;6.63;5.93;;;14.90;91.40;;;;;;4588775;19;20031;-21
2022/11/17 09:20:45;;;;;;;5.05;4.55;;;14.90;91.50;;;;;;4588434;19;20010;-21
2022/11/17 09:22:16;;;;;;;4.43;3.57;;;14.90;91.40;;;;;;4589534;19;20006;-23
2022/11/17 09:23:47;;;;;;;3.88;3.00;;;14.90;91.20;;;;;;4589527;19;20014;-22
2022/11/17 09:25:18;;;;;;;3.90;3.25;;;14.90;91.10;;;;;;4591614;19;20338;-22
2022/11/17 09:26:51;;;;;;;3.25;2.58;;;14.90;90.90;;;;;;4593824;19;20007;-22
2022/11/17 09:28:25;;;;;;;3.40;2.67;;;14.90;90.70;;;;;;4593584;19;20462;-22
2022/11/17 09:29:55;;;;;;;3.97;2.80;;;15.00;90.80;;;;;;4593386;19;20037;-22
2022/11/17 09:31:28;;;;;;;3.33;2.80;;;15.00;90.90;;;;;;4593600;19;20018;-23
2022/11/17 09:32:59;;;;;;;3.70;3.10;;;15.00;90.80;;;;;;4593636;19;20010;-24
2022/11/17 09:34:30;;;;;;;3.70;2.80;;;15.10;90.80;;;;;;4594413;19;20035;-23
2022/11/17 09:36:01;;;;;;;4.30;3.40;;;15.10;90.90;;;;;;4593390;19;20014;-23
2022/11/17 09:37:32;;;;;;;4.45;3.72;;;15.10;91.00;;;;;;4593732;19;20006;-24
2022/11/17 09:39:03;;;;;;;4.55;3.78;;;15.10;91.30;;;;;;4591801;19;20022;-21
2022/11/17 09:40:35;;;;;;;4.82;3.47;;;15.10;91.30;;;;;;4594454;19;20073;-23
2022/11/17 09:42:12;;;;;;;3.90;3.25;;;15.00;91.20;;;;;;4593403;19;20467;-23
2022/11/17 09:43:52;;;;;;;4.77;3.87;;;15.00;91.00;;;;;;4592834;19;20043;-22
2022/11/17 09:45:31;;;;;;;5.17;3.80;;;15.00;90.70;;;;;;4592222;19;20014;-23
2022/11/17 09:47:05;;;;;;;4.50;3.57;;;15.00;90.50;;;;;;4592734;19;20437;-22
2022/11/17 09:48:45;;;;;;;4.90;3.67;;;15.00;90.40;;;;;;4592787;19;20035;-23
2022/11/17 09:50:38;;;;;;;4.30;3.60;;;15.10;90.40;;;;;;4592287;19;20078;-25
2022/11/17 09:52:22;;;;;;;4.40;2.90;;;15.10;90.20;;;;;;4593489;19;20022;-22
2022/11/17 09:54:10;;;;;;;7.73;5.90;;;15.10;90.20;;;;;;4592199;19;20356;-22
2022/11/17 09:55:53;;;;;;;15.30;10.07;;;15.10;90.40;;;;;;4591884;19;20398;-22
2022/11/17 09:57:32;;;;;;;12.67;8.73;;;15.10;90.10;;;;;;4592581;19;20019;-23
2022/11/17 09:59:04;;;;;;;10.10;6.63;;;15.10;90.00;;;;;;4591585;19;20006;-23
2022/11/17 10:00:35;;;;;;;6.88;5.05;;;15.10;90.20;;;;;;4592085;19;20062;-23
2022/11/17 10:02:09;;;;;;;7.40;5.03;;;15.10;90.20;;;;;;4592070;19;20018;-21
2022/11/17 10:03:42;;;;;;;6.63;5.53;;;15.10;90.00;;;;;;4593706;19;20013;-22
2022/11/17 10:05:15;;;;;;;6.07;4.90;;;15.10;90.10;;;;;;4592050;19;20021;-23
2022/11/17 10:06:47;;;;;;;6.03;4.63;;;15.10;90.20;;;;;;4592030;19;20014;-21
2022/11/17 10:08:40;;;;;;;6.63;5.30;;;15.00;90.10;;;;;;4592029;19;20082;-22
2022/11/17 10:10:12;;;;;;;6.60;4.80;;;15.00;90.00;;;;;;4590507;19;20014;-22
2022/11/17 10:11:43;;;;;;;5.07;3.63;;;15.10;90.20;;;;;;4591621;19;20452;-22
2022/11/17 10:13:23;;;;;;;3.88;3.13;;;15.10;90.10;;;;;;4590560;19;20014;-23
2022/11/17 10:14:54;;;;;;;3.33;2.70;;;15.10;90.10;;;;;;4590630;19;20408;-22
2022/11/17 10:16:25;;;;;;;3.90;2.97;;;15.10;90.60;;;;;;4590771;19;20009;-24
2022/11/17 10:17:56;;;;;;;4.32;3.92;;;15.10;90.30;;;;;;4590816;19;20010;-22
2022/11/17 10:19:31;;;;;;;5.30;4.63;;;13.40;90.70;;;;;;4591872;19;20400;-22
2022/11/17 10:21:02;;;;;;;6.97;5.73;;;12.00;92.00;;;;;;4590635;19;20011;-22
2022/11/17 10:22:34;;;;;;;6.15;5.30;;;11.30;93.20;;;;;;4590539;19;20440;-21
2022/11/17 10:24:07;;;;;;;5.40;4.90;;;10.90;94.10;;;;;;4590308;19;20002;-21
2022/11/17 10:25:40;;;;;;;5.83;5.23;;;10.70;94.00;;;;;;4590352;19;20445;-21
2022/11/17 10:27:17;;;;;;;5.97;5.37;;;10.60;93.80;;;;;;4590454;19;20445;-22
2022/11/17 10:28:48;;;;;;;6.33;5.60;;;10.50;94.10;;;;;;4590602;19;20445;-23
2022/11/17 10:30:22;;;;;;;5.63;5.00;;;10.50;94.10;;;;;;4590487;19;20508;-21
2022/11/17 10:31:53;;;;;;;6.97;5.90;;;10.40;94.20;;;;;;4590262;19;20480;-21
2022/11/17 10:33:38;;;;;;;10.52;9.23;;;10.40;94.60;;;;;;4590016;19;20456;-22
2022/11/17 10:35:19;;;;;;;6.13;5.53;;;10.30;94.10;;;;;;4589844;19;20046;-23
2022/11/17 10:36:50;;;;;;;7.53;6.10;;;10.30;94.60;;;;;;4590375;19;20886;-21
2022/11/17 10:38:23;;;;;;;7.03;6.33;;;10.20;94.60;;;;;;4589361;19;20497;-22
2022/11/17 10:40:25;;;;;;;6.47;5.72;;;10.20;94.60;;;;;;4588598;19;21077;-22
2022/11/17 10:41:56;;;;;;;5.27;4.77;;;10.20;94.70;;;;;;4589905;19;20045;-22
2022/11/17 10:43:32;;;;;;;5.80;5.10;;;10.10;94.70;;;;;;4590060;19;20429;-22
2022/11/17 10:45:03;;;;;;;6.97;6.23;;;10.10;94.50;;;;;;4590230;19;20408;-21
2022/11/17 10:46:51;;;;;;;7.32;6.13;;;10.10;94.50;;;;;;4589816;19;20440;-22
2022/11/17 10:48:28;;;;;;;6.20;5.43;;;10.10;94.60;;;;;;4590914;19;20027;-23
2022/11/17 10:50:23;;;;;;;6.73;5.23;;;10.10;94.70;;;;;;4591237;19;20444;-22
2022/11/17 10:52:14;;;;;;;6.77;5.00;;;10.80;94.10;;;;;;4591124;19;21077;-21
2022/11/17 10:54:07;;;;;;;5.47;4.83;;;11.90;93.40;;;;;;4592526;19;20449;-22
2022/11/17 10:55:39;;;;;;;5.40;4.90;;;12.40;92.70;;;;;;4592463;19;20436;-21
2022/11/17 10:57:22;;;;;;;5.63;4.93;;;12.80;92.40;;;;;;4590763;19;20455;-23
2022/11/17 10:58:55;;;;;;;6.40;5.03;;;13.00;92.00;;;;;;4589975;19;20527;-22
2022/11/17 11:00:34;;;;;;;6.23;5.20;;;13.20;91.90;;;;;;4591422;19;20467;-22
2022/11/17 11:02:30;;;;;;;5.80;4.90;;;13.40;91.80;;;;;;4591175;19;21027;-22
2022/11/17 11:04:02;;;;;;;5.67;4.90;;;13.60;91.70;;;;;;4590845;19;20845;-22
2022/11/17 11:05:33;;;;;;;7.33;5.37;;;13.60;91.50;;;;;;4590875;19;20448;-21
2022/11/17 11:07:24;;;;;;;5.77;5.23;;;13.70;91.40;;;;;;4589230;19;20453;-24
2022/11/17 11:09:10;;;;;;;6.25;5.05;;;13.80;91.40;;;;;;4591150;19;20433;-22
2022/11/17 11:10:42;;;;;;;5.17;4.67;;;13.90;91.30;;;;;;4591262;19;20018;-23
2022/11/17 11:12:40;;;;;;;5.00;4.28;;;13.90;91.10;;;;;;4590888;19;20421;-22
2022/11/17 11:14:42;;;;;;;6.27;5.40;;;14.00;91.10;;;;;;4590598;19;20010;-22
2022/11/17 11:16:14;;;;;;;7.90;5.83;;;14.00;91.10;;;;;;4590418;19;20590;-22
2022/11/17 11:17:46;;;;;;;7.60;5.30;;;14.10;91.10;;;;;;4591326;19;20010;-21
2022/11/17 11:19:18;;;;;;;5.70;4.70;;;14.10;91.10;;;;;;4588309;19;20047;-22
2022/11/17 11:20:58;;;;;;;7.33;5.83;;;14.20;91.10;;;;;;4590273;19;20021;-21
2022/11/17 11:22:44;;;;;;;9.53;7.40;;;14.20;90.90;;;;;;4591431;19;20393;-22
2022/11/17 11:24:28;;;;;;;7.50;5.67;;;14.20;90.80;;;;;;4590015;19;20372;-22
2022/11/17 11:26:11;;;;;;;6.50;5.17;;;14.20;90.70;;;;;;4590303;19;20007;-21
2022/11/17 11:28:10;;;;;;;6.63;5.03;;;14.30;90.80;;;;;;4590206;19;20010;-22
2022/11/17 11:29:44;;;;;;;5.97;5.10;;;14.30;90.80;;;;;;4591659;19;20010;-21
2022/11/17 11:31:30;;;;;;;5.83;4.43;;;14.30;90.70;;;;;;4591688;19;20348;-22
2022/11/17 11:33:38;;;;;;;5.27;4.67;;;14.40;90.60;;;;;;4590591;19;20026;-21
2022/11/17 11:35:43;;;;;;;4.83;4.07;;;14.40;90.60;;;;;;4590882;19;20044;-21
2022/11/17 11:37:14;;;;;;;4.80;4.30;;;14.40;90.60;;;;;;4591587;19;20352;-22
2022/11/17 11:38:51;;;;;;;;;;;14.40;90.40;;;;;;4588328;19;20022;-22
2022/11/17 11:40:26;;;;;;;5.43;4.57;;;14.50;90.30;;;;;;4590344;19;20335;-24
2022/11/17 11:42:06;;;;;;;5.63;4.73;;;14.40;90.20;;;;;;4590081;19;20017;-21
2022/11/17 11:43:56;;;;;;;6.73;4.47;;;14.40;90.10;;;;;;4590942;19;19999;-23
2022/11/17 11:45:55;;;;;;;5.10;3.97;;;14.50;89.90;;;;;;4591448;19;20018;-22
2022/11/17 11:47:43;;;;;;;4.83;4.33;;;14.50;90.10;;;;;;4588615;19;20010;-21
2022/11/17 11:49:40;;;;;;;6.30;4.93;;;14.50;89.90;;;;;;4590809;19;20018;-22
2022/11/17 11:51:23;;;;;;;13.90;9.10;;;14.50;90.10;;;;;;4590809;19;20500;-21
2022/11/17 11:53:08;;;;;;;12.77;8.23;;;14.50;90.20;;;;;;4589735;19;20015;-21
2022/11/17 11:54:44;;;;;;;11.60;6.80;;;14.50;90.30;;;;;;4590052;19;20066;-22
2022/11/17 11:56:34;;;;;;;10.20;7.17;;;14.40;90.20;;;;;;4589843;19;20364;-23
2022/11/17 11:58:20;;;;;;;9.53;7.10;;;14.50;90.20;;;;;;4589565;19;20015;-21
2022/11/17 11:59:57;;;;;;;9.50;6.30;;;14.40;90.20;;;;;;4589492;19;20010;-22
2022/11/17 12:01:36;;;;;;;10.90;6.43;;;14.40;89.80;;;;;;4589657;19;20015;-21
2022/11/17 12:03:19;;;;;;;10.97;7.33;;;14.50;89.90;;;;;;4589939;19;20021;-22
2022/11/17 12:05:05;;;;;;;9.43;6.33;;;14.50;90.10;;;;;;4589879;19;20478;-21
2022/11/17 12:06:46;;;;;;;7.03;5.43;;;14.50;90.00;;;;;;4590230;19;20006;-22
2022/11/17 12:08:25;;;;;;;5.93;5.10;;;14.50;90.10;;;;;;4589447;19;20439;-22
2022/11/17 12:10:18;;;;;;;5.40;4.63;;;14.50;89.80;;;;;;4589307;19;20027;-22
2022/11/17 12:12:01;;;;;;;5.40;4.50;;;14.50;90.00;;;;;;4589335;19;20011;-22
2022/11/17 12:13:33;;;;;;;5.23;4.43;;;14.50;89.90;;;;;;4588954;19;20368;-22
2022/11/17 12:15:19;;;;;;;5.97;4.57;;;14.50;89.80;;;;;;4589340;19;20499;-21
2022/11/17 12:16:58;;;;;;;7.23;5.43;;;14.50;89.80;;;;;;4591101;19;20325;-22
2022/11/17 12:18:30;;;;;;;5.80;4.93;;;14.60;89.70;;;;;;4588667;19;20110;-22
2022/11/17 12:20:02;;;;;;;5.72;4.53;;;14.50;89.70;;;;;;4591237;19;20021;-25
2022/11/17 12:21:33;;;;;;;4.93;4.23;;;14.60;90.00;;;;;;4589126;19;20575;-23
2022/11/17 12:23:14;;;;;;;5.18;4.47;;;14.60;89.90;;;;;;4589849;19;20047;-22
2022/11/17 12:24:45;;;;;;;5.37;4.33;;;14.50;89.60;;;;;;4589807;19;20011;-22
2022/11/17 12:26:29;;;;;;;6.38;5.10;;;14.60;89.80;;;;;;4590454;19;20459;-21
2022/11/17 12:28:28;;;;;;;6.57;5.80;;;14.50;89.70;;;;;;4589311;19;20026;-22
2022/11/17 12:30:00;;;;;;;9.17;6.27;;;14.60;89.90;;;;;;4590396;19;20031;-21
2022/11/17 12:31:40;;;;;;;;;;;14.50;89.80;;;;;;4591890;19;20014;-24
2022/11/17 12:33:11;;;;;;;5.93;4.90;;;14.50;89.40;;;;;;4589020;19;19926;-22
2022/11/17 12:34:42;;;;;;;8.55;5.60;;;14.50;89.40;;;;;;4589625;19;20464;-22
2022/11/17 12:36:22;;;;;;;5.50;4.57;;;14.50;89.20;;;;;;4588831;19;20031;-22
2022/11/17 12:38:15;;;;;;;6.50;4.70;;;14.60;89.50;;;;;;4589994;19;20014;-22
2022/11/17 12:39:58;;;;;;;5.90;4.83;;;14.60;89.60;;;;;;4588336;19;20037;-22
2022/11/17 12:41:47;;;;;;;4.77;4.27;;;14.60;89.40;;;;;;4589513;19;20014;-22
2022/11/17 12:43:26;;;;;;;6.30;4.90;;;14.60;89.10;;;;;;4589699;19;20033;-21
2022/11/17 12:45:08;;;;;;;5.30;4.80;;;14.50;89.00;;;;;;4589729;19;20011;-24
2022/11/17 12:46:42;;;;;;;5.22;4.72;;;14.60;89.10;;;;;;4590093;19;20014;-23
2022/11/17 12:48:13;;;;;;;5.83;5.07;;;14.60;89.50;;;;;;4589760;19;20305;-22
2022/11/17 12:50:02;;;;;;;6.28;4.95;;;14.60;89.50;;;;;;4589478;19;20017;-22
2022/11/17 12:51:36;;;;;;;5.90;4.73;;;14.60;89.60;;;;;;4588687;19;20070;-21
2022/11/17 12:53:38;;;;;;;5.20;4.70;;;14.60;89.50;;;;;;4589508;19;20006;-22
2022/11/17 12:55:20;;;;;;;7.03;5.78;;;14.60;89.30;;;;;;4589097;19;20007;-22
2022/11/17 12:57:13;;;;;;;6.07;5.40;;;14.60;89.60;;;;;;4588444;19;20002;-22
2022/11/17 12:59:34;;;;;;;6.53;5.10;;;14.60;89.40;;;;;;4589004;19;20025;-23
2022/11/17 13:01:31;;;;;;;5.97;5.23;;;14.60;89.60;;;;;;4592171;19;20006;-22
2022/11/17 13:03:14;;;;;;;6.97;5.20;;;14.60;89.30;;;;;;4592205;19;20011;-22
2022/11/17 13:04:50;;;;;;;6.10;5.27;;;14.60;89.50;;;;;;4592792;19;20016;-22
2022/11/17 13:06:22;;;;;;;7.17;5.77;;;14.60;89.30;;;;;;4592392;19;20368;-22
2022/11/17 13:08:13;;;;;;;8.82;7.22;;;14.60;89.70;;;;;;4591961;19;20105;-23